Meath Environmental Platform

Observations

Time Sensor AQI SAQ Temp °C Hum % Pres Pa CO μg/m³ H₂S μg/m³ NO μg/m³ NO₂ μg/m³ O₃ μg/m³ SO₂ μg/m³ CO₂e PPM VOC PPM PM1 μg/m³ PM2.5 μg/m³ PM4 μg/m³ PM10 μg/m³ TPS µm
Thursday 13 August 2026
05:19 Trim Patrick St 2 20.9 77 38,460 0 3.47 1.51 11.59 32.68 4.39 5.43 8.93 9.83
05:18 Trim Patrick St 2 20.9 77 38,460 0 3.58 1.5 17.3 22.96 3.62 4.57 8.22 9.04
05:17 Trim Market St 2 21.4 74 36,373 0 0 1.47 2.84 39.44 0 2.85 3.36 5.72
05:17 Trim Patrick St 2 20.8 77 38,460 0 0 1.48 5.82 27.47 4.82 4.57 8.93 9.83
05:16 Trim Market St 2 21.4 74 36,198 0 0 1.33 2.27 38.82 0 2.85 4.8 8.74
05:16 Trim Patrick St 2 20.9 77 38,460 0 0.44 1.49 1.84 34.06 4.57 6.29 9.65 10.61
05:15 Trim Market St 2 21.4 74 36,025 0 0 1.42 11.06 43.57 0 2.14 4.31 6.93
05:15 Trim Patrick St 2 20.9 77 38,460 0 1.29 1.51 12.04 24.5 3.93 4.57 8.22 9.04
05:14 Trim Market St 2 21.4 74 35,958 0 0 1.4 3.16 41.03 0 2.14 3.35 5.72
05:13 Trim Market St 2 21.4 74 35,807 0 0 1.53 4.52 38.23 0 2.14 3.83 6.32
05:13 Trim Patrick St 2 20.9 77 38,460 0 3.55 1.61 15.02 23.52 4.07 7.14 9.62 10.59
05:12 Trim Market St 2 21.4 74 35,846 0 0 1.49 5.29 39.84 0 2.85 3.83 6.32
05:12 Trim Patrick St 2 20.9 77 38,460 0 0.26 1.59 8.76 27.47 4.28 6.29 9.63 10.59
05:11 Trim Patrick St 2 20.9 77 38,460 0 0 1.49 0 32.37 4.68 6.29 10.33 11.36
05:10 Trim Market St 2 21.4 74 35,812 0 0 1.56 3.82 42.82 0 2.85 4.31 6.93
05:09 Trim Market St 2 21.4 74 35,809 0 0 1.53 7.23 31.38 0 2.14 4.31 6.93
05:09 Trim Patrick St 2 20.9 77 38,460 0 1.58 1.62 8.44 31.63 4.54 6.29 8.92 9.81
05:08 Trim Patrick St 2 20.9 77 38,460 0 2.76 1.58 11.89 28.83 4.49 4.57 8.23 9.05
05:07 Trim Patrick St 2 20.9 78 38,460 0 0.73 1.74 13.41 22.77 3.96 5.43 8.91 9.8
05:06 Trim Market St 2 21.4 74 35,477 0 0 1.33 2.61 48.08 0 3.56 4.79 7.53